Time;durP1;ratioP1;P1;durP2;ratioP2;P2;SDS_P1;SDS_P2;PMS_P1;PMS_P2;Temp;Humidity;BMP_temperature;BMP_pressure;BME280_temperature;BME280_humidity;BME280_pressure;Samples;Min_cycle;Max_cycle;Signal;HPM_P1;HPM_P2
2021/11/28 00:01:57;;;;;;;6.20;2.50;;;;;;;12.32;40.27;101314.16;5054441;28;20032;-77
2021/11/28 00:04:23;;;;;;;6.63;3.47;;;;;;;12.24;40.40;101318.47;5054432;28;20033;-78
2021/11/28 00:07:20;;;;;;;5.95;2.75;;;;;;;12.26;40.38;101315.44;5036468;28;20055;-78
2021/11/28 00:09:56;;;;;;;4.53;2.33;;;;;;;12.35;40.13;101302.59;5052980;28;20033;-78
2021/11/28 00:14:54;;;;;;;6.22;2.33;;;;;;;12.20;40.30;101301.03;5054620;28;20029;-78
2021/11/28 00:17:20;;;;;;;6.45;2.88;;;;;;;12.13;40.60;101297.91;5054293;28;20040;-77
2021/11/28 00:19:45;;;;;;;4.93;1.75;;;;;;;12.08;40.62;101301.56;5054238;28;20025;-80
2021/11/28 00:22:11;;;;;;;6.82;2.10;;;;;;;11.94;40.84;101292.59;5054029;28;20021;-78
2021/11/28 00:24:37;;;;;;;6.40;2.47;;;;;;;11.96;40.96;101297.78;5053974;28;20056;-78
2021/11/28 00:27:04;;;;;;;7.10;2.70;;;;;;;11.96;40.44;101300.50;5053984;28;20040;-78
2021/11/28 00:29:29;;;;;;;4.50;2.13;;;;;;;11.89;40.53;101296.25;5053927;28;20075;-77
2021/11/28 00:31:56;;;;;;;5.95;2.35;;;;;;;11.54;41.48;101295.06;5053913;28;20032;-77
2021/11/28 00:34:23;;;;;;;7.40;2.65;;;;;;;11.45;41.55;101288.69;5053776;28;20104;-77
2021/11/28 00:36:48;;;;;;;4.30;2.42;;;;;;;11.36;41.63;101285.06;5053755;28;20033;-78
2021/11/28 00:39:14;;;;;;;9.98;2.63;;;;;;;11.43;41.39;101274.50;5053874;28;20082;-78
2021/11/28 00:41:40;;;;;;;3.72;2.28;;;;;;;11.35;41.37;101276.03;5053659;28;20068;-78
2021/11/28 00:44:05;;;;;;;5.97;2.78;;;;;;;11.30;41.46;101273.41;5053587;28;20033;-77
2021/11/28 00:46:32;;;;;;;6.88;2.83;;;;;;;11.10;42.14;101277.34;5053400;28;20073;-77
2021/11/28 00:49:00;;;;;;;4.20;2.25;;;;;;;11.26;41.77;101279.78;5035523;28;20111;-76
2021/11/28 00:54:01;;;;;;;7.65;2.63;;;;;;;11.42;41.30;101278.38;5053716;28;20031;-77
2021/11/28 00:56:26;;;;;;;8.07;2.92;;;;;;;11.56;41.16;101286.53;5035419;28;20033;-77
2021/11/28 00:58:52;;;;;;;13.20;5.85;;;;;;;11.63;40.83;101287.75;5053261;28;20035;-76
2021/11/28 01:01:18;;;;;;;5.57;3.28;;;;;;;11.75;40.50;101279.03;5053390;28;20059;-76
2021/11/28 01:03:44;;;;;;;8.85;3.03;;;;;;;11.84;40.39;101273.66;5052716;28;20032;-76
2021/11/28 01:06:10;;;;;;;8.10;3.72;;;;;;;11.88;40.44;101272.75;5035348;28;20123;-76
2021/11/28 01:08:36;;;;;;;5.32;2.58;;;;;;;11.92;40.36;101261.97;5053191;28;20117;-76
2021/11/28 01:11:01;;;;;;;3.78;2.28;;;;;;;11.94;40.53;101254.28;5053164;28;20029;-78
2021/11/28 01:13:27;;;;;;;5.50;2.47;;;;;;;11.90;40.72;101253.25;5053047;28;20029;-77
2021/11/28 01:15:53;;;;;;;5.32;2.47;;;;;;;11.92;40.33;101256.50;5035217;28;20083;-78
2021/11/28 01:18:18;;;;;;;5.30;2.60;;;;;;;11.64;40.82;101259.28;5053108;28;20083;-77
2021/11/28 01:20:44;;;;;;;10.85;3.05;;;;;;;11.55;41.19;101250.16;5035222;28;20041;-77
2021/11/28 01:23:09;;;;;;;11.63;2.88;;;;;;;11.51;41.51;101240.16;5052632;28;20044;-77
2021/11/28 01:25:35;;;;;;;7.68;2.45;;;;;;;11.36;41.78;101233.88;5052924;28;20099;-77
2021/11/28 01:28:01;;;;;;;4.72;2.42;;;;;;;11.55;41.33;101235.66;5052682;28;20041;-77
2021/11/28 01:30:26;;;;;;;5.68;2.17;;;;;;;11.63;41.16;101233.00;5052870;28;20037;-77
2021/11/28 01:32:52;;;;;;;6.28;2.40;;;;;;;11.81;40.49;101223.06;5052518;28;20529;-78
2021/11/28 01:35:18;;;;;;;6.95;2.50;;;;;;;11.74;40.63;101217.19;5052677;28;20471;-78
2021/11/28 01:37:44;;;;;;;8.95;2.70;;;;;;;11.81;40.49;101216.78;5052673;28;20032;-77
2021/11/28 01:40:14;;;;;;;4.80;2.42;;;;;;;11.87;40.32;101215.56;5052646;28;20021;-78
2021/11/28 01:42:45;;;;;;;4.07;2.10;;;;;;;11.66;40.81;101215.19;5052772;28;20055;-77
2021/11/28 01:45:16;;;;;;;7.35;4.18;;;;;;;11.50;41.21;101217.44;5052552;28;20052;-77
2021/11/28 01:47:42;;;;;;;6.28;2.63;;;;;;;11.53;40.78;101219.56;5052619;28;20152;-82
2021/11/28 01:50:08;;;;;;;9.05;2.30;;;;;;;11.56;40.91;101215.38;5052554;28;20080;-77
2021/11/28 01:52:36;;;;;;;6.95;2.58;;;;;;;11.48;41.03;101203.25;5034417;28;20020;-83
2021/11/28 01:55:05;;;;;;;7.45;3.38;;;;;;;11.56;41.01;101209.91;5052453;28;20406;-77
2021/11/28 01:57:32;;;;;;;6.53;2.45;;;;;;;11.64;40.80;101192.78;5052437;28;20025;-78
2021/11/28 01:59:57;;;;;;;7.32;2.72;;;;;;;11.58;41.12;101202.22;5052553;28;20024;-78
2021/11/28 02:02:23;;;;;;;5.97;2.97;;;;;;;11.74;40.88;101203.50;5052056;28;20028;-78
2021/11/28 02:04:50;;;;;;;6.90;3.03;;;;;;;11.82;40.71;101211.00;5051287;28;20029;-77
2021/11/28 02:07:17;;;;;;;12.15;3.42;;;;;;;11.80;40.62;101218.72;5052161;28;20112;-78
2021/11/28 02:09:42;;;;;;;8.23;2.95;;;;;;;11.86;40.78;101200.22;5052235;28;20025;-77
2021/11/28 02:12:08;;;;;;;5.93;2.42;;;;;;;11.90;40.41;101195.75;5052342;28;20104;-77
2021/11/28 02:14:34;;;;;;;7.18;2.25;;;;;;;11.91;40.79;101184.47;5053355;28;20025;-77
2021/11/28 02:17:00;;;;;;;8.93;2.70;;;;;;;11.82;40.88;101180.06;5056563;28;20029;-77
2021/11/28 02:19:25;;;;;;;5.88;2.33;;;;;;;11.90;40.95;101187.53;5056368;28;20103;-77
2021/11/28 02:21:51;;;;;;;4.90;2.13;;;;;;;11.86;41.04;101181.06;5056349;28;20104;-77
2021/11/28 02:24:17;;;;;;;4.93;2.10;;;;;;;11.84;41.32;101184.09;5056288;28;20369;-78
2021/11/28 02:26:42;;;;;;;7.65;2.40;;;;;;;11.89;41.15;101178.50;5056268;28;20487;-77
2021/11/28 02:29:08;;;;;;;6.30;2.50;;;;;;;11.88;41.24;101165.94;5056226;28;20052;-77
2021/11/28 02:31:34;;;;;;;5.63;2.03;;;;;;;11.78;41.78;101176.28;5056207;28;20025;-77
2021/11/28 02:33:59;;;;;;;7.80;2.22;;;;;;;11.86;41.43;101175.56;5055961;28;20055;-78
2021/11/28 02:36:25;;;;;;;9.70;2.63;;;;;;;12.14;40.96;101179.81;5056043;28;20067;-77
2021/11/28 02:38:51;;;;;;;4.78;2.72;;;;;;;12.00;41.31;101184.53;5056056;28;20029;-78
2021/11/28 02:41:17;;;;;;;5.25;2.92;;;;;;;12.21;41.10;101171.94;5056041;28;20065;-78
2021/11/28 02:43:43;;;;;;;7.03;2.40;;;;;;;12.11;41.19;101174.16;5055952;28;20112;-77
2021/11/28 02:46:10;;;;;;;6.28;2.50;;;;;;;12.16;41.16;101169.34;5055693;28;20092;-77
2021/11/28 02:48:35;;;;;;;4.82;2.45;;;;;;;12.13;41.13;101189.16;5037734;28;20032;-78
2021/11/28 02:51:02;;;;;;;5.47;2.40;;;;;;;11.99;41.62;101182.94;5037863;28;20102;-80
2021/11/28 02:53:29;;;;;;;8.27;1.95;;;;;;;12.05;41.52;101187.16;5037757;28;20021;-78
2021/11/28 02:56:00;;;;;;;3.92;2.03;;;;;;;12.13;41.26;101188.34;5055353;28;20033;-77
2021/11/28 02:58:27;;;;;;;8.63;2.55;;;;;;;12.18;41.38;101185.47;5037806;28;20092;-78
2021/11/28 03:01:04;;;;;;;7.63;2.35;;;;;;;12.06;41.81;101187.97;5037708;28;20025;-78
2021/11/28 03:03:30;;;;;;;4.90;2.03;;;;;;;12.11;41.57;101171.41;5035856;28;20025;-77
2021/11/28 03:05:56;;;;;;;3.42;1.70;;;;;;;12.05;41.85;101181.69;5036511;28;20082;-78
2021/11/28 03:08:22;;;;;;;6.28;2.10;;;;;;;12.10;41.78;101170.59;5055402;28;20036;-77
2021/11/28 03:10:54;;;;;;;6.28;1.83;;;;;;;12.21;41.65;101165.66;5055506;28;20078;-77
2021/11/28 03:13:32;;;;;;;5.15;1.70;;;;;;;12.23;41.69;101156.00;5055429;28;20035;-78
2021/11/28 03:16:02;;;;;;;5.97;2.55;;;;;;;12.43;40.98;101140.97;5037189;28;20129;-77
2021/11/28 03:18:29;;;;;;;7.72;2.63;;;;;;;12.54;40.93;101144.22;5037393;28;20036;-78
2021/11/28 03:20:58;;;;;;;9.35;2.65;;;;;;;12.61;40.68;101136.34;5055321;28;20074;-77
2021/11/28 03:23:28;;;;;;;7.15;2.22;;;;;;;12.58;40.57;101138.94;5037303;28;20036;-77
2021/11/28 03:26:11;;;;;;;;;;;;;;;12.47;40.68;101135.69;5055106;28;20028;-78
2021/11/28 03:28:39;;;;;;;5.93;2.58;;;;;;;12.51;40.74;101136.63;5054982;28;19919;-78
2021/11/28 03:31:05;;;;;;;5.70;2.20;;;;;;;12.57;40.58;101140.88;5055113;28;20110;-77
2021/11/28 03:33:31;;;;;;;7.68;2.13;;;;;;;12.58;40.54;101131.50;5055022;28;20487;-77
2021/11/28 03:35:57;;;;;;;6.03;1.90;;;;;;;12.60;40.71;101128.44;5054986;28;20029;-78
2021/11/28 03:38:24;;;;;;;7.15;2.70;;;;;;;12.61;40.57;101121.84;5054976;28;20100;-78
2021/11/28 03:40:50;;;;;;;5.72;1.52;;;;;;;12.60;40.53;101122.97;5037062;28;20033;-78
2021/11/28 03:43:15;;;;;;;8.30;2.47;;;;;;;12.63;40.76;101125.09;5054857;28;20036;-78
2021/11/28 03:45:41;;;;;;;6.43;1.80;;;;;;;12.71;40.20;101114.16;5054511;28;20048;-78
2021/11/28 03:48:07;;;;;;;7.05;2.30;;;;;;;12.66;40.54;101118.97;5054576;28;20387;-77
2021/11/28 03:50:33;;;;;;;9.05;2.28;;;;;;;12.67;40.55;101112.34;5054754;28;20116;-77
2021/11/28 03:52:59;;;;;;;8.82;2.53;;;;;;;12.66;40.55;101106.06;5054632;28;20049;-77
2021/11/28 03:55:25;;;;;;;10.63;2.20;;;;;;;12.57;40.71;101107.97;5054732;28;20064;-78
2021/11/28 03:57:51;;;;;;;7.80;2.35;;;;;;;12.57;40.97;101107.16;5054586;28;20100;-78
2021/11/28 04:00:17;;;;;;;9.77;2.15;;;;;;;12.53;41.04;101106.97;5054552;28;20446;-77
2021/11/28 04:02:43;;;;;;;8.68;2.45;;;;;;;12.61;40.72;101113.63;5054465;28;20029;-83
2021/11/28 04:05:10;;;;;;;5.00;2.50;;;;;;;12.70;40.62;101104.31;5054411;28;20028;-78
2021/11/28 04:07:36;;;;;;;5.45;2.35;;;;;;;12.58;40.85;101100.56;5054320;28;20047;-77
2021/11/28 04:10:05;;;;;;;7.20;2.25;;;;;;;12.57;41.07;101097.00;5054352;28;20357;-78
2021/11/28 04:12:30;;;;;;;8.43;2.15;;;;;;;12.57;41.09;101088.78;5054310;28;20021;-78
2021/11/28 04:14:57;;;;;;;4.80;2.10;;;;;;;12.62;40.81;101082.31;5054273;28;20033;-78
2021/11/28 04:17:24;;;;;;;10.55;2.42;;;;;;;12.64;40.92;101077.34;5054271;28;20104;-78
2021/11/28 04:19:54;;;;;;;5.05;1.90;;;;;;;12.57;41.15;101088.78;5054156;28;20029;-78
2021/11/28 04:22:20;;;;;;;8.65;2.03;;;;;;;12.46;41.41;101079.22;5054105;28;20029;-77
2021/11/28 04:24:47;;;;;;;6.72;1.98;;;;;;;12.48;41.50;101072.31;5054205;28;20025;-83
2021/11/28 04:27:13;;;;;;;6.28;2.20;;;;;;;12.35;41.80;101081.44;5053888;28;20033;-78
2021/11/28 04:29:39;;;;;;;5.00;2.03;;;;;;;12.35;41.69;101077.91;5054022;28;20032;-77
2021/11/28 04:32:05;;;;;;;7.07;1.80;;;;;;;12.38;41.74;101077.25;5053859;28;20037;-78
2021/11/28 04:34:31;;;;;;;6.80;2.50;;;;;;;12.36;41.92;101068.56;5053994;28;20140;-83
2021/11/28 04:36:56;;;;;;;4.20;1.88;;;;;;;12.43;41.49;101068.91;5053084;28;20555;-77
2021/11/28 04:39:22;;;;;;;7.03;1.92;;;;;;;12.52;41.56;101052.47;5053712;28;20450;-78
2021/11/28 04:41:48;;;;;;;4.07;1.80;;;;;;;12.44;41.79;101041.16;5053912;28;20028;-78
2021/11/28 04:44:14;;;;;;;8.88;2.28;;;;;;;12.46;41.76;101027.94;5053527;28;20498;-77
2021/11/28 04:46:41;;;;;;;5.00;1.80;;;;;;;12.28;42.41;101018.06;5053692;28;20475;-78
2021/11/28 04:49:07;;;;;;;6.43;2.00;;;;;;;12.28;42.42;101023.56;5053622;28;20044;-77
2021/11/28 04:51:33;;;;;;;14.00;2.92;;;;;;;12.19;42.66;101037.22;5053533;28;20021;-78
2021/11/28 04:53:59;;;;;;;6.93;2.17;;;;;;;11.91;43.40;101036.59;5053509;28;20036;-77
2021/11/28 04:56:26;;;;;;;7.47;2.33;;;;;;;11.93;43.44;101030.81;5053502;28;20108;-78
2021/11/28 04:58:53;;;;;;;3.83;2.13;;;;;;;11.95;43.58;101025.84;5053466;28;20558;-78
2021/11/28 05:01:21;;;;;;;11.35;2.92;;;;;;;12.14;43.14;101015.44;5053420;28;20414;-77
2021/11/28 05:03:47;;;;;;;6.47;2.80;;;;;;;11.94;43.67;101011.34;5035435;28;20044;-77
2021/11/28 05:06:13;;;;;;;7.68;2.60;;;;;;;11.86;44.04;101014.03;5053396;28;20021;-80
2021/11/28 05:08:39;;;;;;;3.90;2.08;;;;;;;11.96;43.61;101011.03;5035421;28;20499;-78
2021/11/28 05:11:04;;;;;;;5.55;2.08;;;;;;;12.07;43.77;101004.13;5053117;28;20059;-77
2021/11/28 05:13:30;;;;;;;8.70;2.17;;;;;;;12.25;43.22;101002.28;5052653;28;20039;-77
2021/11/28 05:15:55;;;;;;;7.78;2.08;;;;;;;12.03;43.82;100996.88;5051432;28;20110;-78
2021/11/28 05:18:21;;;;;;;8.85;2.08;;;;;;;12.31;43.02;100990.03;5052325;28;20074;-77
2021/11/28 05:20:48;;;;;;;5.60;1.80;;;;;;;12.32;43.01;100988.09;5053114;28;20079;-77
2021/11/28 05:23:14;;;;;;;7.22;3.55;;;;;;;12.17;43.51;100983.88;5053186;28;20112;-78
2021/11/28 05:25:40;;;;;;;10.63;2.28;;;;;;;11.88;44.38;100979.75;5052889;28;20024;-77
2021/11/28 05:28:08;;;;;;;7.45;2.05;;;;;;;11.79;44.61;100972.56;5052834;28;20051;-77
2021/11/28 05:30:35;;;;;;;6.03;1.70;;;;;;;12.07;43.75;100984.16;5052870;28;20383;-77
2021/11/28 05:33:00;;;;;;;6.63;2.38;;;;;;;12.17;43.52;100976.47;5052951;28;20031;-77
2021/11/28 05:35:26;;;;;;;5.32;1.73;;;;;;;12.14;43.74;100982.56;5052836;28;20068;-77
2021/11/28 05:37:52;;;;;;;5.05;2.50;;;;;;;12.15;43.65;100973.22;5052855;28;20120;-78
2021/11/28 05:40:17;;;;;;;7.07;2.10;;;;;;;12.07;44.10;100971.28;5052835;28;20028;-78
2021/11/28 05:42:47;;;;;;;6.32;2.30;;;;;;;12.22;43.62;100959.88;5052659;28;20399;-77
2021/11/28 05:45:13;;;;;;;7.82;2.03;;;;;;;12.16;43.87;100958.41;5052471;28;20450;-78
2021/11/28 05:47:39;;;;;;;11.25;3.35;;;;;;;12.26;43.57;100962.00;5052559;28;20029;-77
2021/11/28 05:50:05;;;;;;;4.68;2.00;;;;;;;12.17;43.98;100957.31;5052360;28;20028;-77
2021/11/28 05:52:30;;;;;;;5.68;2.17;;;;;;;12.15;43.96;100965.00;5052531;28;20365;-78
2021/11/28 05:54:56;;;;;;;4.97;2.10;;;;;;;12.13;43.91;100969.19;5052618;28;20044;-78
2021/11/28 05:57:23;;;;;;;9.07;2.20;;;;;;;12.35;43.56;100982.00;5052625;28;20460;-78
2021/11/28 05:59:48;;;;;;;6.68;2.33;;;;;;;12.28;43.70;100978.91;5034609;28;20064;-77
2021/11/28 06:02:14;;;;;;;6.38;2.03;;;;;;;12.04;44.44;100974.66;5052545;28;20060;-78
2021/11/28 06:04:39;;;;;;;5.72;1.92;;;;;;;12.34;43.70;100972.16;5052503;28;20052;-78
2021/11/28 06:07:05;;;;;;;5.32;2.40;;;;;;;12.31;43.68;100983.75;5052293;28;20036;-79
2021/11/28 06:09:31;;;;;;;7.50;1.90;;;;;;;12.05;44.40;100981.75;5052436;28;20031;-78
2021/11/28 06:11:57;;;;;;;9.00;2.88;;;;;;;12.44;43.51;100986.34;5052502;28;20053;-78
2021/11/28 06:14:23;;;;;;;7.15;2.58;;;;;;;12.34;43.74;100980.38;5052377;28;20025;-77
2021/11/28 06:16:48;;;;;;;11.25;2.90;;;;;;;12.45;43.33;100984.44;5052397;28;20601;-78
2021/11/28 06:19:14;;;;;;;5.97;2.00;;;;;;;12.44;43.34;100993.78;5052292;28;20025;-78
2021/11/28 06:21:40;;;;;;;6.10;2.17;;;;;;;12.58;43.12;100980.75;5052348;28;20032;-78
2021/11/28 06:24:05;;;;;;;6.82;2.33;;;;;;;12.66;43.08;100974.47;5052232;28;20032;-78
2021/11/28 06:26:31;;;;;;;3.55;1.60;;;;;;;12.86;42.62;100966.75;5052355;28;20025;-84
2021/11/28 06:28:57;;;;;;;4.55;1.98;;;;;;;12.60;43.24;100964.78;5052188;28;20025;-77
2021/11/28 06:31:22;;;;;;;3.72;1.80;;;;;;;12.48;43.40;100962.69;5052315;28;20035;-78
2021/11/28 06:33:48;;;;;;;6.55;2.03;;;;;;;12.75;42.86;100967.03;5034420;28;20033;-78
2021/11/28 06:36:13;;;;;;;3.47;1.80;;;;;;;12.77;42.62;100964.81;5052152;28;20029;-77
2021/11/28 06:38:40;;;;;;;7.25;2.50;;;;;;;12.66;43.17;100974.47;5052335;28;20055;-78
2021/11/28 06:41:06;;;;;;;5.47;1.80;;;;;;;12.67;43.09;100959.63;5052126;28;20035;-77
2021/11/28 06:43:31;;;;;;;6.10;1.65;;;;;;;12.73;42.82;100941.91;5052086;28;20100;-77
2021/11/28 06:45:57;;;;;;;7.22;1.83;;;;;;;12.59;43.38;100951.41;5051932;28;20041;-77
2021/11/28 06:48:23;;;;;;;7.40;1.98;;;;;;;12.56;43.33;100952.06;5051936;28;20029;-78
2021/11/28 06:50:49;;;;;;;5.90;1.90;;;;;;;12.52;43.43;100957.34;5052049;28;20063;-78
2021/11/28 06:53:16;;;;;;;10.38;2.13;;;;;;;12.27;43.99;100963.59;5034177;28;20418;-77
2021/11/28 06:55:41;;;;;;;5.88;1.65;;;;;;;12.30;44.04;100961.03;5052099;28;20481;-78
2021/11/28 06:58:07;;;;;;;8.98;2.03;;;;;;;12.50;43.61;100962.34;5051968;28;20107;-78
2021/11/28 07:00:33;;;;;;;4.45;1.70;;;;;;;12.56;43.44;100958.34;5052803;28;20112;-78
2021/11/28 07:02:58;;;;;;;5.50;1.98;;;;;;;12.29;44.00;100959.41;5037786;28;20463;-77
2021/11/28 07:05:24;;;;;;;4.53;1.98;;;;;;;12.39;43.99;100961.03;5055609;28;20449;-78
2021/11/28 07:07:49;;;;;;;6.35;1.77;;;;;;;12.53;43.32;100958.97;5055482;28;20043;-77
2021/11/28 07:10:15;;;;;;;3.58;1.58;;;;;;;12.60;43.41;100953.00;5055492;28;20472;-77
2021/11/28 07:12:41;;;;;;;7.40;2.05;;;;;;;12.47;43.62;100949.31;5055575;28;20348;-77
2021/11/28 07:15:07;;;;;;;4.53;1.67;;;;;;;12.39;43.85;100948.16;5055343;28;20028;-78
2021/11/28 07:17:33;;;;;;;4.90;1.50;;;;;;;12.23;44.28;100933.28;5054110;28;20033;-79
2021/11/28 07:19:58;;;;;;;10.73;2.08;;;;;;;12.54;43.61;100918.66;5037483;28;20426;-77
2021/11/28 07:22:24;;;;;;;4.70;1.58;;;;;;;12.47;43.62;100911.75;5055271;28;20140;-84
2021/11/28 07:24:50;;;;;;;4.78;1.65;;;;;;;12.49;43.54;100922.38;5055228;28;20071;-78
2021/11/28 07:27:15;;;;;;;9.00;1.98;;;;;;;12.57;43.19;100916.09;5055104;28;20025;-78
2021/11/28 07:29:41;;;;;;;4.30;1.70;;;;;;;12.52;43.49;100918.97;5055216;28;20047;-77
2021/11/28 07:32:07;;;;;;;5.63;1.85;;;;;;;12.72;42.86;100920.28;5055102;28;20074;-77
2021/11/28 07:34:33;;;;;;;7.75;2.85;;;;;;;12.54;43.39;100937.84;5055180;28;20032;-77
2021/11/28 07:36:58;;;;;;;14.13;4.68;;;;;;;12.59;43.08;100935.75;5054998;28;20025;-78
2021/11/28 07:39:24;;;;;;;4.97;1.73;;;;;;;12.71;43.12;100929.66;5054994;28;20032;-78
2021/11/28 07:41:50;;;;;;;5.40;1.55;;;;;;;12.74;42.94;100934.47;5054616;28;20116;-79
2021/11/28 07:44:16;;;;;;;5.18;1.42;;;;;;;12.77;42.93;100940.13;5054694;28;20426;-77
2021/11/28 07:46:41;;;;;;;5.55;1.60;;;;;;;12.71;42.93;100927.72;5054757;28;20021;-77
2021/11/28 07:49:07;;;;;;;5.00;1.80;;;;;;;12.61;43.17;100921.72;5054829;28;20518;-77
2021/11/28 07:51:33;;;;;;;5.80;1.75;;;;;;;12.62;43.15;100924.16;5054783;28;20078;-78
2021/11/28 07:54:01;;;;;;;4.90;2.38;;;;;;;12.70;43.16;100920.63;5054672;28;20025;-81
2021/11/28 07:56:27;;;;;;;7.43;2.55;;;;;;;12.82;42.70;100906.25;5054548;28;20124;-78
2021/11/28 07:58:52;;;;;;;8.93;2.80;;;;;;;12.86;42.67;100903.69;5054527;28;20029;-78
2021/11/28 08:01:18;;;;;;;5.65;1.60;;;;;;;12.72;43.23;100907.38;5054509;28;20024;-77
2021/11/28 08:03:44;;;;;;;6.35;1.75;;;;;;;12.82;42.84;100898.00;5054562;28;20032;-78
2021/11/28 08:06:09;;;;;;;8.27;2.03;;;;;;;12.68;43.04;100906.41;5054455;28;20103;-78
2021/11/28 08:08:35;;;;;;;4.57;1.95;;;;;;;12.67;42.96;100910.28;5054286;28;20108;-78
2021/11/28 08:11:01;;;;;;;7.80;2.08;;;;;;;12.62;43.22;100913.19;5054245;28;20029;-78
2021/11/28 08:13:28;;;;;;;7.45;1.83;;;;;;;12.65;43.12;100903.50;5054670;28;20066;-78
2021/11/28 08:15:54;;;;;;;6.53;2.05;;;;;;;12.64;43.02;100907.38;5054104;28;20032;-77
2021/11/28 08:18:19;;;;;;;8.20;2.95;;;;;;;12.60;43.11;100900.94;5036303;28;20400;-76
2021/11/28 08:20:45;;;;;;;5.68;2.35;;;;;;;12.51;43.44;100898.19;5036267;28;20025;-76
2021/11/28 08:23:11;;;;;;;5.50;2.05;;;;;;;12.34;44.00;100909.16;5036105;28;20484;-76
2021/11/28 08:25:36;;;;;;;9.27;3.15;;;;;;;12.59;43.28;100902.88;5054055;28;20104;-76
2021/11/28 08:28:06;;;;;;;5.40;1.90;;;;;;;12.54;43.28;100897.53;5053496;28;20040;-76
2021/11/28 08:30:33;;;;;;;8.40;2.38;;;;;;;12.64;43.33;100890.94;5053931;28;20021;-77
2021/11/28 08:32:59;;;;;;;4.53;2.00;;;;;;;12.65;42.93;100890.63;5045835;28;20036;-77
2021/11/28 08:35:25;;;;;;;9.00;2.70;;;;;;;12.56;43.12;100880.78;5040863;28;20041;-84
2021/11/28 08:37:50;;;;;;;5.57;2.90;;;;;;;12.61;43.09;100888.81;5026314;28;20021;-81
2021/11/28 08:40:18;;;;;;;5.35;1.75;;;;;;;12.56;43.31;100886.28;5021916;28;20017;-78
2021/11/28 08:42:44;;;;;;;5.88;1.85;;;;;;;12.61;43.20;100883.34;5024838;28;20045;-82
2021/11/28 08:45:11;;;;;;;5.40;1.95;;;;;;;12.73;42.97;100884.31;5022716;28;20100;-83
2021/11/28 08:47:37;;;;;;;8.48;3.38;;;;;;;12.69;42.96;100879.78;5023877;28;20053;-78
2021/11/28 08:50:07;;;;;;;8.20;2.40;;;;;;;12.88;42.61;100871.25;5021643;28;20018;-79
2021/11/28 08:52:33;;;;;;;5.22;2.03;;;;;;;12.89;42.58;100875.59;5019135;28;20033;-78
2021/11/28 08:54:59;;;;;;;5.72;2.40;;;;;;;12.97;42.45;100867.34;5025677;28;20022;-85
2021/11/28 08:57:25;;;;;;;9.57;3.40;;;;;;;13.00;42.37;100874.13;5020751;28;20022;-84
2021/11/28 08:59:51;;;;;;;4.70;2.70;;;;;;;12.78;42.80;100870.44;5023930;28;20013;-87
2021/11/28 09:02:17;;;;;;;8.75;2.90;;;;;;;12.94;42.44;100881.72;5014091;28;20022;-84
2021/11/28 09:04:44;;;;;;;8.15;2.40;;;;;;;12.70;43.02;100886.91;5018233;28;20380;-84
2021/11/28 09:07:09;;;;;;;6.07;2.10;;;;;;;12.65;43.21;100884.31;5020798;28;20057;-85
2021/11/28 09:09:37;;;;;;;8.85;2.65;;;;;;;12.95;42.61;100879.78;5018784;28;20045;-85
2021/11/28 09:12:04;;;;;;;7.68;2.20;;;;;;;12.84;42.83;100883.97;5029643;28;20029;-83
2021/11/28 09:14:30;;;;;;;11.43;2.42;;;;;;;12.85;43.07;100882.88;5015758;28;20032;-84
2021/11/28 09:16:55;;;;;;;9.10;3.10;;;;;;;12.77;42.94;100877.06;5016576;28;20505;-87
2021/11/28 09:21:50;;;;;;;6.40;2.10;;;;;;;12.89;42.79;100868.16;5025005;28;21026;-86
2021/11/28 09:26:59;;;;;;;10.20;3.83;;;;;;;12.95;42.71;100863.31;5026766;28;20028;-87
2021/11/28 09:29:25;;;;;;;8.50;2.42;;;;;;;12.75;43.09;100851.88;5017006;28;20447;-83
2021/11/28 09:31:50;;;;;;;6.13;2.00;;;;;;;12.59;43.57;100853.53;5026427;28;20029;-89
2021/11/28 09:34:18;;;;;;;8.95;3.72;;;;;;;12.80;43.15;100852.88;5020354;28;20022;-86
2021/11/28 09:36:43;;;;;;;6.15;2.30;;;;;;;12.63;43.53;100851.75;5023134;28;20021;-82
2021/11/28 09:39:09;;;;;;;5.30;2.33;;;;;;;12.41;44.20;100851.94;5016162;28;20341;-85
2021/11/28 09:41:36;;;;;;;4.32;2.03;;;;;;;12.11;45.05;100846.28;5022584;28;20025;-85
2021/11/28 09:44:14;;;;;;;5.20;2.53;;;;;;;11.99;45.33;100850.75;5024566;28;20444;-81
2021/11/28 09:46:40;;;;;;;11.55;2.78;;;;;;;11.89;45.42;100849.13;5007502;28;20034;-89
2021/11/28 09:49:07;;;;;;;8.43;2.88;;;;;;;12.01;45.41;100841.06;5012296;28;20025;-86
2021/11/28 09:51:34;;;;;;;4.97;2.67;;;;;;;12.13;45.04;100838.53;5012789;28;20025;-86
2021/11/28 09:54:03;;;;;;;7.40;2.65;;;;;;;12.15;45.17;100844.47;5012933;28;20033;-88
2021/11/28 09:56:33;;;;;;;6.28;2.47;;;;;;;12.45;44.39;100833.69;5012675;28;20030;-85
2021/11/28 09:58:59;;;;;;;7.72;2.40;;;;;;;12.58;44.16;100827.25;5012949;28;20037;-87
2021/11/28 10:01:26;;;;;;;8.48;2.70;;;;;;;12.65;44.02;100829.50;5013109;28;20030;-87
2021/11/28 10:03:53;;;;;;;4.22;2.63;;;;;;;12.37;44.63;100840.00;5013236;28;20477;-87
2021/11/28 10:06:18;;;;;;;6.43;2.80;;;;;;;12.29;44.75;100841.59;5014131;28;20034;-87
2021/11/28 10:08:45;;;;;;;6.18;2.85;;;;;;;12.87;43.44;100833.97;5012665;28;20037;-92
2021/11/28 10:11:16;;;;;;;4.82;2.22;;;;;;;12.64;44.09;100823.22;5012983;28;20083;-87
2021/11/28 10:13:43;;;;;;;5.10;2.80;;;;;;;12.80;43.72;100836.41;5012848;28;20030;-88
2021/11/28 10:16:09;;;;;;;17.00;4.00;;;;;;;12.38;44.66;100828.69;5012582;28;20117;-86
2021/11/28 10:18:36;;;;;;;5.68;2.22;;;;;;;12.55;44.48;100822.44;5013616;28;20075;-84
2021/11/28 10:21:02;;;;;;;8.80;3.50;;;;;;;12.87;43.69;100836.72;5012289;28;20032;-85
2021/11/28 10:23:28;;;;;;;6.70;2.17;;;;;;;12.50;44.75;100826.13;5012287;28;20025;-84
2021/11/28 10:26:15;;;;;;;4.75;2.10;;;;;;;12.53;44.92;100834.81;5011962;28;20030;-86
2021/11/28 10:29:07;;;;;;;5.45;2.45;;;;;;;12.61;44.88;100818.38;5006166;28;20034;-87
2021/11/28 10:31:55;;;;;;;8.98;3.20;;;;;;;12.50;45.10;100814.34;5004727;28;20108;-84
2021/11/28 10:34:41;;;;;;;5.18;1.85;;;;;;;12.56;45.07;100799.38;5007640;28;20033;-84
2021/11/28 10:37:22;;;;;;;5.95;2.13;;;;;;;12.36;45.83;100794.53;5006712;28;20022;-87
2021/11/28 10:39:54;;;;;;;5.60;2.20;;;;;;;12.45;45.66;100792.59;5004337;28;20384;-82
2021/11/28 10:42:28;;;;;;;6.00;2.20;;;;;;;12.37;45.85;100790.66;5007537;28;20036;-83
2021/11/28 10:45:14;;;;;;;7.55;2.60;;;;;;;12.49;45.53;100793.56;5019809;28;20041;-86
2021/11/28 10:47:48;;;;;;;4.10;2.22;;;;;;;12.48;45.96;100792.75;5023721;28;20033;-84
2021/11/28 10:50:19;;;;;;;7.90;2.83;;;;;;;12.04;46.95;100793.91;5025917;28;20556;-84
2021/11/28 10:53:09;;;;;;;7.50;2.55;;;;;;;12.73;45.55;100796.59;5047460;28;20113;-84
2021/11/28 10:55:39;;;;;;;9.88;2.67;;;;;;;13.14;44.40;100811.63;5036131;28;20041;-84
2021/11/28 10:58:11;;;;;;;12.88;2.35;;;;;;;13.04;44.53;100812.00;5054741;28;20037;-89
2021/11/28 11:00:51;;;;;;;10.60;2.88;;;;;;;12.60;45.85;100814.00;5039051;28;20171;-88
2021/11/28 11:03:31;;;;;;;5.05;2.53;;;;;;;13.29;44.37;100822.09;5056809;28;20025;-88
2021/11/28 11:06:19;;;;;;;7.95;3.10;;;;;;;13.23;44.82;100819.88;5018150;28;20029;-90
2021/11/28 11:08:47;;;;;;;8.02;3.20;;;;;;;13.29;44.67;100819.34;5040394;28;20053;-88
2021/11/28 11:11:14;;;;;;;8.75;3.00;;;;;;;12.97;45.51;100819.91;5035997;28;20029;-85
2021/11/28 11:14:03;;;;;;;5.63;2.42;;;;;;;13.21;44.94;100825.66;5021526;28;20053;-86
2021/11/28 11:16:30;;;;;;;6.80;3.28;;;;;;;13.26;44.82;100824.69;5018946;28;20026;-84
2021/11/28 11:19:30;;;;;;;8.15;3.75;;;;;;;13.39;44.72;100825.63;5018146;28;20087;-83
2021/11/28 11:22:05;;;;;;;;;;;;;;;13.15;45.60;100810.50;5028472;28;20037;-87
2021/11/28 11:24:32;;;;;;;16.48;3.85;;;;;;;13.38;44.75;100824.00;5025467;28;19935;-82
2021/11/28 11:27:07;;;;;;;8.15;3.83;;;;;;;13.10;45.51;100832.63;5024677;28;20100;-79
2021/11/28 11:29:32;;;;;;;5.60;3.22;;;;;;;12.92;46.15;100833.78;5025474;28;20061;-82
2021/11/28 11:31:58;;;;;;;8.10;3.47;;;;;;;13.06;45.74;100837.16;5022601;28;20511;-87
2021/11/28 11:34:30;;;;;;;7.32;4.93;;;;;;;13.29;45.37;100835.81;5024849;28;20753;-91
2021/11/28 11:37:13;;;;;;;8.35;4.85;;;;;;;13.46;44.46;100843.19;5011592;28;20097;-86